createdAt,value
2023-11-30T00:02:07.516Z,98735.03
2023-11-30T00:05:10.210Z,98737.97
2023-11-30T00:08:12.508Z,98730.84
2023-11-30T00:11:14.832Z,98730.44
2023-11-30T00:14:17.102Z,98734.38
2023-11-30T00:17:19.379Z,98727.41
2023-11-30T00:20:21.654Z,98724.16
2023-11-30T00:23:23.919Z,98721.06
2023-11-30T00:26:26.238Z,98722.28
2023-11-30T00:29:30.940Z,98717.34
2023-11-30T00:32:33.140Z,98716.31
2023-11-30T00:35:35.988Z,98718.97
2023-11-30T00:38:38.114Z,98732.00
2023-11-30T00:41:40.290Z,98728.44
2023-11-30T00:44:42.524Z,98726.97
2023-11-30T00:47:44.805Z,98730.06
2023-11-30T00:50:47.167Z,98726.25
2023-11-30T00:53:49.520Z,98717.25
2023-11-30T00:56:51.883Z,98718.97
2023-11-30T00:59:54.228Z,98713.63
2023-11-30T01:02:56.760Z,98713.94
2023-11-30T01:05:59.152Z,98707.91
2023-11-30T01:09:01.443Z,98711.31
2023-11-30T01:12:03.822Z,98717.41
2023-11-30T01:15:06.829Z,98719.50
2023-11-30T01:18:09.169Z,98720.38
2023-11-30T01:21:11.581Z,98719.59
2023-11-30T01:24:14.013Z,98720.91
2023-11-30T01:27:17.267Z,98716.47
2023-11-30T01:30:20.299Z,98710.38
2023-11-30T01:33:22.670Z,98702.06
2023-11-30T01:36:24.860Z,98711.44
2023-11-30T01:39:27.470Z,98704.19
2023-11-30T01:42:29.773Z,98707.78
2023-11-30T01:45:32.010Z,98704.56
2023-11-30T01:48:35.457Z,98709.63
2023-11-30T01:51:38.702Z,98710.28
2023-11-30T01:54:41.191Z,98706.72
2023-11-30T01:57:44.329Z,98699.28
2023-11-30T02:00:48.737Z,98707.88
2023-11-30T02:03:51.299Z,98708.72
2023-11-30T02:06:54.744Z,98701.13
2023-11-30T02:09:57.840Z,98707.91
2023-11-30T02:13:00.097Z,98703.50
2023-11-30T02:16:02.398Z,98696.81
2023-11-30T02:19:05.256Z,98706.00
2023-11-30T02:22:07.590Z,98705.03
2023-11-30T02:25:09.897Z,98700.16
2023-11-30T02:28:19.282Z,98695.75
2023-11-30T02:31:21.545Z,98698.09
2023-11-30T02:34:23.875Z,98693.13
2023-11-30T02:37:26.140Z,98693.22
2023-11-30T02:40:28.448Z,98698.22
2023-11-30T02:43:31.029Z,98701.09
2023-11-30T02:46:33.371Z,98692.66
2023-11-30T02:49:35.661Z,98694.97
2023-11-30T02:52:38.075Z,98702.53
2023-11-30T02:55:41.295Z,98695.19
2023-11-30T02:58:43.633Z,98691.13
2023-11-30T03:01:50.525Z,98685.63
2023-11-30T03:04:52.886Z,98680.06
2023-11-30T03:07:55.128Z,98679.63
2023-11-30T03:10:57.708Z,98673.41
2023-11-30T03:13:59.970Z,98675.75
2023-11-30T03:17:02.228Z,98671.13
2023-11-30T03:20:04.792Z,98685.31
2023-11-30T03:23:07.079Z,98671.84
2023-11-30T03:26:09.382Z,98670.91
2023-11-30T03:29:11.696Z,98678.09
2023-11-30T03:32:14.067Z,98682.00
2023-11-30T03:35:16.449Z,98673.97
2023-11-30T03:38:21.881Z,98668.06
2023-11-30T03:41:24.759Z,98657.66
2023-11-30T03:44:27.033Z,98643.72
2023-11-30T03:47:29.367Z,98648.25
2023-11-30T03:50:31.630Z,98633.13
2023-11-30T03:53:33.956Z,98628.56
2023-11-30T03:56:37.726Z,98621.34
2023-11-30T03:59:40.436Z,98621.94
2023-11-30T04:02:43.500Z,98632.38
2023-11-30T04:05:45.956Z,98632.44
2023-11-30T04:08:48.488Z,98632.75
2023-11-30T04:11:51.598Z,98633.44
2023-11-30T04:14:54.136Z,98618.94
2023-11-30T04:17:57.159Z,98615.22
2023-11-30T04:20:59.549Z,98604.97
2023-11-30T04:24:01.974Z,98615.00
2023-11-30T04:27:04.604Z,98606.03
2023-11-30T04:30:07.638Z,98602.38
2023-11-30T04:33:11.343Z,98597.78
2023-11-30T04:36:14.949Z,98601.94
2023-11-30T04:39:17.183Z,98598.50
2023-11-30T04:42:19.367Z,98595.75
2023-11-30T04:45:21.747Z,98581.78
2023-11-30T04:48:24.086Z,98575.50
2023-11-30T04:51:26.982Z,98570.50
2023-11-30T04:54:29.369Z,98569.63
2023-11-30T04:57:31.519Z,98561.22
2023-11-30T05:00:33.733Z,98562.28
2023-11-30T05:03:36.675Z,98567.38
2023-11-30T05:06:39.101Z,98562.13
2023-11-30T05:09:41.330Z,98543.31
2023-11-30T05:12:44.306Z,98544.16
2023-11-30T05:15:47.619Z,98532.09
2023-11-30T05:18:49.909Z,98537.59
2023-11-30T05:21:52.282Z,98539.72
2023-11-30T05:24:54.561Z,98535.34
2023-11-30T05:27:58.833Z,98533.94
2023-11-30T05:31:01.349Z,98521.31
2023-11-30T05:34:03.740Z,98523.81
2023-11-30T05:37:05.995Z,98522.78
2023-11-30T05:40:09.087Z,98522.38
2023-11-30T05:43:11.369Z,98522.19
2023-11-30T05:46:13.713Z,98522.00
2023-11-30T05:49:16.188Z,98531.47
2023-11-30T05:52:18.374Z,98531.63
2023-11-30T05:55:20.903Z,98531.63
2023-11-30T05:58:23.181Z,98528.41
2023-11-30T06:01:25.462Z,98528.47
2023-11-30T06:04:29.644Z,98525.56
2023-11-30T06:07:32.119Z,98520.28
2023-11-30T06:10:34.308Z,98525.88
2023-11-30T06:13:36.470Z,98514.00
2023-11-30T06:16:38.741Z,98521.91
2023-11-30T06:19:41.842Z,98526.59
2023-11-30T06:22:44.085Z,98521.97
2023-11-30T06:25:46.390Z,98532.25
2023-11-30T06:28:48.655Z,98529.56
2023-11-30T06:31:50.933Z,98527.44
2023-11-30T06:34:53.243Z,98517.59
2023-11-30T06:37:55.501Z,98524.00
2023-11-30T06:40:58.058Z,98519.63
2023-11-30T06:44:00.437Z,98510.91
2023-11-30T06:47:02.827Z,98526.16
2023-11-30T06:50:05.830Z,98532.53
2023-11-30T06:53:08.100Z,98544.34
2023-11-30T06:56:11.333Z,98544.19
2023-11-30T06:59:13.589Z,98544.53
2023-11-30T07:02:15.767Z,98553.97
2023-11-30T07:05:17.891Z,98545.56
2023-11-30T07:08:20.259Z,98537.09
2023-11-30T07:11:22.858Z,98537.75
2023-11-30T07:14:25.162Z,98537.06
2023-11-30T07:17:27.439Z,98526.63
2023-11-30T07:20:29.758Z,98536.41
2023-11-30T07:23:32.941Z,98539.28
2023-11-30T07:26:35.166Z,98533.69
2023-11-30T07:29:39.185Z,98544.19
2023-11-30T07:32:41.530Z,98538.03
2023-11-30T07:35:44.043Z,98536.03
2023-11-30T07:38:46.204Z,98543.47
2023-11-30T07:41:49.884Z,98538.38
2023-11-30T07:44:53.479Z,98531.47
2023-11-30T07:47:57.948Z,98535.03
2023-11-30T07:51:00.439Z,98525.03
2023-11-30T07:54:02.996Z,98513.19
2023-11-30T07:57:05.693Z,98514.78
2023-11-30T08:00:09.749Z,98530.50
2023-11-30T08:03:12.176Z,98529.22
2023-11-30T08:06:14.710Z,98545.16
2023-11-30T08:09:17.987Z,98538.97
2023-11-30T08:12:20.303Z,98524.56
2023-11-30T08:15:22.466Z,98533.78
2023-11-30T08:18:26.095Z,98517.19
2023-11-30T08:21:29.165Z,98518.59
2023-11-30T08:24:31.629Z,98521.09
2023-11-30T08:27:34.762Z,98522.59
2023-11-30T08:33:53.608Z,98505.25
2023-11-30T08:36:55.873Z,98509.59
2023-11-30T08:40:00.231Z,98494.50
2023-11-30T08:43:03.057Z,98499.94
2023-11-30T08:46:05.645Z,98502.28
2023-11-30T08:49:08.024Z,98502.78
2023-11-30T08:52:10.272Z,98487.56
2023-11-30T08:55:12.613Z,98487.94
2023-11-30T08:58:15.227Z,98482.38
2023-11-30T09:01:17.593Z,98477.38
2023-11-30T09:04:20.089Z,98477.81
2023-11-30T09:07:22.409Z,98467.88
2023-11-30T09:10:24.651Z,98464.69
2023-11-30T09:13:26.926Z,98448.28
2023-11-30T09:16:29.243Z,98441.06
2023-11-30T09:19:31.445Z,98433.69
2023-11-30T09:22:34.100Z,98432.47
2023-11-30T09:25:36.384Z,98432.88
2023-11-30T09:28:38.745Z,98417.13
2023-11-30T09:31:42.406Z,98434.00
2023-11-30T09:34:44.818Z,98411.66
2023-11-30T09:37:49.229Z,98406.09
2023-11-30T09:40:52.873Z,98404.66
2023-11-30T09:43:57.768Z,98396.06
2023-11-30T09:47:00.745Z,98400.09
2023-11-30T09:50:03.528Z,98404.66
2023-11-30T09:53:05.979Z,98393.59
2023-11-30T09:56:09.035Z,98408.22
2023-11-30T09:59:13.115Z,98406.28
2023-11-30T10:02:15.401Z,98412.66
2023-11-30T10:05:17.863Z,98413.03
2023-11-30T10:08:20.190Z,98401.09
2023-11-30T10:11:22.492Z,98395.78
2023-11-30T10:14:26.100Z,98386.47
2023-11-30T10:17:29.632Z,98387.22
2023-11-30T10:20:32.120Z,98374.53
2023-11-30T10:23:34.459Z,98376.13
2023-11-30T10:26:37.875Z,98358.25
2023-11-30T10:29:43.165Z,98349.53
2023-11-30T10:32:45.887Z,98349.22
2023-11-30T10:35:51.100Z,98344.06
2023-11-30T10:38:55.961Z,98337.25
2023-11-30T10:42:02.031Z,98328.22
2023-11-30T10:45:07.697Z,98337.97
2023-11-30T10:48:13.475Z,98338.84
2023-11-30T10:51:16.492Z,98333.41
2023-11-30T10:54:27.921Z,98330.88
2023-11-30T10:57:30.805Z,98326.00
2023-11-30T11:00:36.460Z,98322.91
2023-11-30T11:03:48.533Z,98311.81
2023-11-30T11:06:51.050Z,98305.91
2023-11-30T11:09:55.524Z,98297.19
2023-11-30T11:13:01.990Z,98296.63
2023-11-30T11:16:04.913Z,98279.72
2023-11-30T11:19:09.359Z,98275.59
2023-11-30T11:22:21.409Z,98287.75
2023-11-30T11:25:25.107Z,98295.72
2023-11-30T11:28:28.675Z,98279.59
2023-11-30T11:31:31.139Z,98277.38
2023-11-30T11:34:33.715Z,98265.28
2023-11-30T11:37:36.301Z,98259.09
2023-11-30T11:40:40.374Z,98264.09
2023-11-30T11:43:42.886Z,98254.91
2023-11-30T11:46:45.306Z,98253.91
2023-11-30T11:49:47.862Z,98253.91
2023-11-30T11:52:50.445Z,98248.56
2023-11-30T11:55:52.948Z,98238.81
2023-11-30T11:58:55.153Z,98234.69
2023-11-30T12:01:59.416Z,98222.69
2023-11-30T12:05:13.534Z,98233.66
2023-11-30T12:08:16.252Z,98231.16
2023-11-30T12:11:19.446Z,98237.94
2023-11-30T12:14:21.975Z,98234.41
2023-11-30T12:17:24.336Z,98233.06
2023-11-30T12:20:26.714Z,98218.13
2023-11-30T12:23:28.935Z,98224.91
2023-11-30T12:26:31.194Z,98222.69
2023-11-30T12:29:33.674Z,98212.38
2023-11-30T12:32:38.799Z,98211.63
2023-11-30T12:35:41.460Z,98208.06
2023-11-30T12:38:45.815Z,98214.41
2023-11-30T12:41:48.065Z,98203.19
2023-11-30T12:44:50.269Z,98201.56
2023-11-30T12:47:52.637Z,98195.78
2023-11-30T12:50:55.009Z,98203.75
2023-11-30T12:53:57.346Z,98204.31
2023-11-30T12:56:59.732Z,98195.94
2023-11-30T13:00:02.526Z,98191.94
2023-11-30T13:03:04.929Z,98190.91
2023-11-30T13:06:09.116Z,98187.63
2023-11-30T13:09:14.577Z,98175.06
2023-11-30T13:12:16.951Z,98169.59
2023-11-30T13:15:19.216Z,98164.88
2023-11-30T13:18:21.583Z,98167.53
2023-11-30T13:21:24.102Z,98170.34
2023-11-30T13:24:26.530Z,98156.03
2023-11-30T13:27:28.786Z,98155.88
2023-11-30T13:30:31.077Z,98159.88
2023-11-30T13:33:33.945Z,98157.06
2023-11-30T13:36:36.341Z,98163.44
2023-11-30T13:39:38.790Z,98147.44
2023-11-30T13:42:41.269Z,98138.75
2023-11-30T13:45:47.422Z,98144.53
2023-11-30T13:48:49.917Z,98145.41
2023-11-30T13:51:52.316Z,98134.88
2023-11-30T13:54:54.517Z,98145.53
2023-11-30T13:57:57.538Z,98136.75
2023-11-30T14:01:00.957Z,98145.50
2023-11-30T14:04:05.061Z,98145.63
2023-11-30T14:07:07.661Z,98131.88
2023-11-30T14:10:11.010Z,98130.41
2023-11-30T14:13:13.484Z,98126.09
2023-11-30T14:16:16.113Z,98120.78
2023-11-30T14:19:18.627Z,98124.59
2023-11-30T14:22:22.150Z,98117.31
2023-11-30T14:25:24.533Z,98112.91
2023-11-30T14:28:27.409Z,98114.69
2023-11-30T14:31:29.940Z,98107.03
2023-11-30T14:34:32.310Z,98115.75
2023-11-30T14:37:34.670Z,98114.69
2023-11-30T14:40:37.062Z,98101.38
2023-11-30T14:43:39.993Z,98076.38
2023-11-30T14:46:42.859Z,98076.97
2023-11-30T14:49:45.226Z,98079.25
2023-11-30T14:52:47.626Z,98087.28
2023-11-30T14:55:49.933Z,98098.78
2023-11-30T14:58:52.974Z,98102.59
2023-11-30T15:01:55.433Z,98100.34
2023-11-30T15:04:57.985Z,98092.91
2023-11-30T15:08:00.568Z,98086.94
2023-11-30T15:11:02.996Z,98093.13
2023-11-30T15:14:06.328Z,98070.91
2023-11-30T15:17:09.695Z,98080.97
2023-11-30T15:20:13.972Z,98078.59
2023-11-30T15:23:16.493Z,98070.00
2023-11-30T15:26:19.284Z,98072.06
2023-11-30T15:29:22.590Z,98050.91
2023-11-30T15:32:25.097Z,98045.69
2023-11-30T15:35:28.985Z,98042.50
2023-11-30T15:38:33.791Z,98040.00
2023-11-30T15:41:36.163Z,98037.44
2023-11-30T15:44:40.773Z,98017.88
2023-11-30T15:47:43.096Z,98024.25
2023-11-30T15:50:48.331Z,98016.56
2023-11-30T15:53:50.704Z,98008.97
2023-11-30T15:56:54.135Z,98020.94
2023-11-30T15:59:56.499Z,98008.00
2023-11-30T16:02:58.785Z,98015.19
2023-11-30T16:06:01.195Z,98005.81
2023-11-30T16:09:04.182Z,98003.47
2023-11-30T16:12:06.833Z,98010.50
2023-11-30T16:15:10.525Z,98017.38
2023-11-30T16:18:12.856Z,98011.88
2023-11-30T16:21:18.648Z,98008.00
2023-11-30T16:24:20.962Z,97995.16
2023-11-30T16:27:24.485Z,97989.84
2023-11-30T16:30:27.291Z,97991.44
2023-11-30T16:33:30.279Z,97988.78
2023-11-30T16:36:32.580Z,97986.34
2023-11-30T16:39:36.519Z,97983.25
2023-11-30T16:42:39.459Z,97975.41
2023-11-30T16:45:41.978Z,97967.91
2023-11-30T16:48:45.468Z,97968.72
2023-11-30T16:51:52.640Z,97970.16
2023-11-30T16:54:58.201Z,97966.41
2023-11-30T16:58:01.787Z,97971.50
2023-11-30T17:01:04.276Z,97959.00
2023-11-30T17:04:06.885Z,97962.06
2023-11-30T17:07:09.388Z,97959.81
2023-11-30T17:10:11.782Z,97951.72
2023-11-30T17:13:14.047Z,97950.38
2023-11-30T17:16:16.376Z,97942.72
2023-11-30T17:19:18.836Z,97942.78
2023-11-30T17:22:21.217Z,97942.22
2023-11-30T17:25:23.742Z,97947.41
2023-11-30T17:28:26.196Z,97940.03
2023-11-30T17:31:28.736Z,97928.16
2023-11-30T17:34:31.225Z,97937.00
2023-11-30T17:37:33.966Z,97923.53
2023-11-30T17:40:36.317Z,97919.56
2023-11-30T17:43:38.663Z,97917.47
2023-11-30T17:46:43.517Z,97914.34
2023-11-30T17:49:45.926Z,97909.59
2023-11-30T17:52:52.330Z,97898.03
2023-11-30T17:55:54.787Z,97901.19
2023-11-30T17:58:57.178Z,97895.03
2023-11-30T18:01:59.719Z,97899.13
2023-11-30T18:05:02.156Z,97895.03
2023-11-30T18:08:04.580Z,97879.59
2023-11-30T18:11:07.356Z,97871.91
2023-11-30T18:14:10.051Z,97866.00
2023-11-30T18:17:12.400Z,97854.91
2023-11-30T18:20:14.775Z,97838.53
2023-11-30T18:23:17.370Z,97828.81
2023-11-30T18:26:28.802Z,53628.75
2023-11-30T18:29:39.344Z,97829.69
2023-11-30T18:32:43.199Z,97828.81
2023-11-30T18:36:47.308Z,53628.75
2023-11-30T18:39:49.876Z,97820.63
2023-11-30T18:42:53.593Z,53628.75
2023-11-30T18:45:56.614Z,97811.63
2023-11-30T18:48:59.393Z,97811.63
2023-11-30T18:52:11.757Z,53628.75
2023-11-30T18:55:34.750Z,97821.34
2023-11-30T18:58:36.959Z,97808.38
2023-11-30T19:01:39.282Z,53628.75
2023-11-30T19:04:43.140Z,97808.38
2023-11-30T19:07:53.957Z,9769.91
2023-11-30T19:10:56.270Z,53628.75
2023-11-30T19:13:58.718Z,97794.75
2023-11-30T19:17:01.111Z,97794.75
2023-11-30T19:20:06.506Z,97794.75
2023-11-30T19:23:08.780Z,97793.16
2023-11-30T19:26:11.265Z,97793.03
2023-11-30T19:29:16.743Z,53628.75
2023-11-30T19:32:19.629Z,97793.03
2023-11-30T19:35:22.014Z,97793.03
2023-11-30T19:38:27.484Z,97773.41
2023-11-30T19:41:29.952Z,97767.22
2023-11-30T19:44:32.173Z,97765.56
2023-11-30T19:47:35.020Z,97761.69
2023-11-30T19:50:37.412Z,97755.88
2023-11-30T19:58:40.755Z,97755.88
2023-11-30T20:01:43.169Z,97726.81
2023-11-30T20:04:45.571Z,53628.75
2023-11-30T20:07:47.913Z,53628.75
2023-11-30T20:10:53.179Z,53628.75
2023-11-30T20:13:55.649Z,53628.75
2023-11-30T20:16:58.041Z,53628.75
2023-11-30T20:20:00.401Z,53628.75
2023-11-30T20:23:05.264Z,53628.75
2023-11-30T20:26:08.089Z,53628.75
2023-11-30T20:29:10.997Z,53628.75
2023-11-30T20:32:13.623Z,53628.75
2023-11-30T20:35:16.104Z,53628.75
2023-11-30T20:38:18.441Z,53628.75
2023-11-30T20:41:20.629Z,53628.75
2023-11-30T20:44:22.971Z,53628.75
2023-11-30T20:47:26.212Z,53628.75
2023-11-30T20:50:28.818Z,53628.75
2023-11-30T20:53:31.186Z,53628.75
2023-11-30T20:56:33.427Z,53628.75
2023-11-30T20:59:36.117Z,53628.75
2023-11-30T21:02:38.480Z,53628.75
2023-11-30T21:05:40.873Z,53628.75
2023-11-30T21:08:43.333Z,53628.75
2023-11-30T21:11:45.751Z,53628.75
2023-11-30T21:14:48.534Z,97707.28
2023-11-30T21:17:50.899Z,97699.50
2023-11-30T21:25:59.133Z,97702.00
2023-11-30T21:29:01.473Z,97689.78
2023-11-30T21:32:03.841Z,97695.44
2023-11-30T21:35:06.173Z,97700.47
2023-11-30T21:38:08.607Z,97700.47
2023-11-30T21:41:16.729Z,97695.56
2023-11-30T21:44:19.088Z,97690.53
2023-11-30T21:47:21.630Z,97688.00
2023-11-30T21:50:25.477Z,97687.63
2023-11-30T21:53:28.692Z,97680.81
2023-11-30T21:56:31.180Z,97683.72
2023-11-30T21:59:37.613Z,97697.19
2023-11-30T22:02:41.061Z,97700.34
2023-11-30T22:05:43.790Z,97693.78
2023-11-30T22:08:49.922Z,97695.94
2023-11-30T22:11:52.428Z,97694.56
2023-11-30T22:14:54.765Z,97687.38
2023-11-30T22:17:57.776Z,97679.06
2023-11-30T22:21:00.246Z,97677.31
2023-11-30T22:24:02.631Z,97686.72
2023-11-30T22:27:05.418Z,97696.31
2023-11-30T22:30:08.865Z,97692.44
2023-11-30T22:33:11.300Z,97705.25
2023-11-30T22:36:13.797Z,97702.50
2023-11-30T22:39:16.089Z,97723.16
2023-11-30T22:42:18.610Z,97713.94
2023-11-30T22:45:21.041Z,97708.16
2023-11-30T22:48:23.747Z,97705.25
2023-11-30T22:51:26.217Z,97698.34
2023-11-30T22:54:28.915Z,97701.34
2023-11-30T22:57:31.480Z,97692.41
2023-11-30T23:00:35.155Z,97682.97
2023-11-30T23:03:37.793Z,97697.69
2023-11-30T23:06:41.772Z,97688.91
2023-11-30T23:09:44.310Z,97693.94
2023-11-30T23:12:46.861Z,97692.78
2023-11-30T23:15:49.488Z,97683.59
2023-11-30T23:18:51.913Z,97679.94
2023-11-30T23:21:54.545Z,97680.44
2023-11-30T23:24:57.015Z,97674.78
2023-11-30T23:28:00.764Z,97669.66
2023-11-30T23:31:03.342Z,97684.22
2023-11-30T23:34:05.922Z,97681.31
2023-11-30T23:37:08.394Z,97686.25
2023-11-30T23:40:11.460Z,97686.13
2023-11-30T23:43:13.957Z,97689.41
2023-11-30T23:46:16.466Z,97688.00
2023-11-30T23:49:18.914Z,97693.81
2023-11-30T23:52:21.360Z,97687.50
2023-11-30T23:55:23.803Z,97697.84
2023-11-30T23:58:26.221Z,97701.13
